createdAt,value
2023-12-16T00:00:20.116Z,74.65
2023-12-16T00:00:40.742Z,74.36
2023-12-16T00:01:01.526Z,74.44
2023-12-16T00:01:21.909Z,74.59
2023-12-16T00:01:44.920Z,74.41
2023-12-16T00:02:08.462Z,74.3
2023-12-16T00:02:23.613Z,74.2
2023-12-16T00:02:44.092Z,74.48
2023-12-16T00:03:04.654Z,74.57
2023-12-16T00:03:25.283Z,74.52
2023-12-16T00:03:45.937Z,74.64
2023-12-16T00:04:06.419Z,74.59
2023-12-16T00:04:27.039Z,74.6
2023-12-16T00:04:47.590Z,74.61
2023-12-16T00:05:08.102Z,74.52
2023-12-16T00:05:28.732Z,74.61
2023-12-16T00:05:49.311Z,74.75
2023-12-16T00:06:09.862Z,74.97
2023-12-16T00:06:30.414Z,74.95
2023-12-16T00:06:50.993Z,74.99
2023-12-16T00:07:11.610Z,74.9
2023-12-16T00:07:32.089Z,74.82
2023-12-16T00:07:52.675Z,74.79
2023-12-16T00:08:13.286Z,74.97
2023-12-16T00:08:33.822Z,75.02
2023-12-16T00:08:54.391Z,74.87
2023-12-16T00:09:14.964Z,74.93
2023-12-16T00:09:35.590Z,74.85
2023-12-16T00:09:56.151Z,74.92
2023-12-16T00:10:16.711Z,74.91
2023-12-16T00:10:37.185Z,74.82
2023-12-16T00:10:57.824Z,74.79
2023-12-16T00:11:18.430Z,74.84
2023-12-16T00:11:38.894Z,74.85
2023-12-16T00:11:59.558Z,74.94
2023-12-16T00:12:20.112Z,74.96
2023-12-16T00:12:40.689Z,75.01
2023-12-16T00:13:01.321Z,74.94
2023-12-16T00:13:21.887Z,75.1
2023-12-16T00:13:42.406Z,75.16
2023-12-16T00:14:02.988Z,75.32
2023-12-16T00:14:23.540Z,75.43
2023-12-16T00:14:44.157Z,75.37
2023-12-16T00:15:04.717Z,75.46
2023-12-16T00:15:25.290Z,75.32
2023-12-16T00:15:45.885Z,75.26
2023-12-16T00:16:06.447Z,75.15
2023-12-16T00:16:27.202Z,75.11
2023-12-16T00:16:47.578Z,75.12
2023-12-16T00:17:08.142Z,75.01
2023-12-16T00:17:28.757Z,74.92
2023-12-16T00:17:49.286Z,74.89
2023-12-16T00:18:09.871Z,74.79
2023-12-16T00:18:30.698Z,74.78
2023-12-16T00:18:51.215Z,74.84
2023-12-16T00:19:11.719Z,74.88
2023-12-16T00:19:32.226Z,74.71
2023-12-16T00:19:52.785Z,74.6
2023-12-16T00:20:13.318Z,74.54
2023-12-16T00:20:33.842Z,74.58
2023-12-16T00:20:54.427Z,74.44
2023-12-16T00:21:15.040Z,74.63
2023-12-16T00:21:35.593Z,74.66
2023-12-16T00:21:56.146Z,74.62
2023-12-16T00:22:16.737Z,74.46
2023-12-16T00:22:37.307Z,74.33
2023-12-16T00:22:57.853Z,74.38
2023-12-16T00:23:18.433Z,74.44
2023-12-16T00:23:39.012Z,74.39
2023-12-16T00:23:59.590Z,74.26
2023-12-16T00:24:20.160Z,74.07
2023-12-16T00:24:41.011Z,73.97
2023-12-16T00:25:01.383Z,73.97
2023-12-16T00:25:21.990Z,73.97
2023-12-16T00:25:42.434Z,74.01
2023-12-16T00:26:03.080Z,73.98
2023-12-16T00:26:23.624Z,74.16
2023-12-16T00:26:44.161Z,74.36
2023-12-16T00:27:04.724Z,74.41
2023-12-16T00:27:25.294Z,74.3
2023-12-16T00:27:45.927Z,74.31
2023-12-16T00:28:06.549Z,74.28
2023-12-16T00:28:27.122Z,74.16
2023-12-16T00:28:47.594Z,74.02
2023-12-16T00:29:08.155Z,73.95
2023-12-16T00:29:28.718Z,73.94
2023-12-16T00:29:49.302Z,73.98
2023-12-16T00:30:10.088Z,73.99
2023-12-16T00:30:30.490Z,73.87
2023-12-16T00:30:51.115Z,73.8
2023-12-16T00:31:11.692Z,73.77
2023-12-16T00:31:32.225Z,73.59
2023-12-16T00:31:52.790Z,73.88
2023-12-16T00:32:13.307Z,74.04
2023-12-16T00:32:33.921Z,74.29
2023-12-16T00:32:54.520Z,74.5
2023-12-16T00:33:15.155Z,74.29
2023-12-16T00:33:35.643Z,74.21
2023-12-16T00:33:56.245Z,74.2
2023-12-16T00:34:16.961Z,74.18
2023-12-16T00:34:37.348Z,74.01
2023-12-16T00:34:57.889Z,74.09
2023-12-16T00:35:18.445Z,74.03
2023-12-16T00:35:39.030Z,74
2023-12-16T00:35:59.635Z,74.05
2023-12-16T00:36:20.195Z,74.06
2023-12-16T00:36:40.782Z,73.93
2023-12-16T00:37:01.297Z,74.06
2023-12-16T00:37:22.019Z,74.52
2023-12-16T00:37:42.811Z,74.74
2023-12-16T00:38:03.059Z,75.08
2023-12-16T00:38:23.637Z,75.02
2023-12-16T00:38:44.172Z,74.85
2023-12-16T00:39:04.776Z,74.83
2023-12-16T00:39:25.320Z,74.67
2023-12-16T00:39:45.963Z,74.75
2023-12-16T00:40:06.504Z,74.58
2023-12-16T00:40:27.105Z,74.62
2023-12-16T00:40:47.703Z,74.49
2023-12-16T00:41:08.275Z,74.41
2023-12-16T00:41:28.769Z,74.29
2023-12-16T00:41:49.383Z,74.19
2023-12-16T00:42:26.412Z,74.07
2023-12-16T00:42:46.992Z,74.1
2023-12-16T00:43:07.672Z,74.01
2023-12-16T00:43:28.149Z,74
2023-12-16T00:43:48.673Z,73.96
2023-12-16T00:44:09.252Z,74.23
2023-12-16T00:44:29.831Z,74.06
2023-12-16T00:44:50.411Z,74
2023-12-16T00:45:11.098Z,74
2023-12-16T00:45:31.552Z,73.94
2023-12-16T00:45:52.085Z,73.87
2023-12-16T00:46:12.732Z,73.85
2023-12-16T00:46:33.294Z,74.03
2023-12-16T00:46:53.864Z,74.09
2023-12-16T00:47:14.381Z,74.17
2023-12-16T00:47:35.098Z,74.05
2023-12-16T00:47:55.626Z,74.09
2023-12-16T00:48:16.184Z,73.95
2023-12-16T00:48:36.789Z,73.89
2023-12-16T00:48:57.407Z,73.86
2023-12-16T00:49:18.017Z,73.76
2023-12-16T00:49:38.420Z,73.77
2023-12-16T00:49:59.053Z,73.77
2023-12-16T00:50:19.555Z,73.6
2023-12-16T00:50:40.137Z,73.54
2023-12-16T00:51:00.693Z,73.46
2023-12-16T00:51:21.284Z,73.33
2023-12-16T00:51:41.909Z,73.23
2023-12-16T00:52:02.454Z,73.63
2023-12-16T00:52:23.070Z,74.04
2023-12-16T00:52:43.602Z,74.64
2023-12-16T00:53:04.141Z,74.6
2023-12-16T00:53:24.720Z,74.51
2023-12-16T00:53:45.289Z,74.41
2023-12-16T00:54:05.848Z,74.49
2023-12-16T00:54:26.443Z,74.5
2023-12-16T00:54:47.039Z,74.4
2023-12-16T00:55:07.721Z,74.48
2023-12-16T00:55:28.191Z,74.41
2023-12-16T00:55:48.727Z,74.54
2023-12-16T00:56:09.283Z,74.46
2023-12-16T00:56:29.873Z,74.34
2023-12-16T00:56:50.419Z,74.32
2023-12-16T00:57:10.999Z,74.2
2023-12-16T00:57:31.577Z,74.12
2023-12-16T00:57:52.179Z,74.11
2023-12-16T00:58:12.750Z,74.58
2023-12-16T00:58:33.284Z,74.94
2023-12-16T00:58:53.881Z,74.92
2023-12-16T00:59:14.457Z,74.77
2023-12-16T00:59:35.047Z,74.74
2023-12-16T00:59:55.595Z,74.55
2023-12-16T01:00:16.189Z,74.57
2023-12-16T01:00:36.775Z,74.65
2023-12-16T01:00:57.382Z,74.99
2023-12-16T01:01:17.950Z,74.95
2023-12-16T01:01:38.526Z,74.78
2023-12-16T01:01:59.049Z,74.6
2023-12-16T01:02:19.578Z,74.53
2023-12-16T01:02:40.142Z,74.48
2023-12-16T01:03:00.801Z,74.4
2023-12-16T01:03:21.348Z,74.39
2023-12-16T01:03:42.080Z,74.28
2023-12-16T01:04:02.551Z,74.2
2023-12-16T01:04:23.118Z,74.14
2023-12-16T01:04:43.628Z,74.09
2023-12-16T01:05:04.194Z,73.98
2023-12-16T01:05:24.799Z,73.92
2023-12-16T01:05:45.359Z,73.99
2023-12-16T01:06:05.881Z,74.06
2023-12-16T01:06:26.500Z,74.05
2023-12-16T01:06:47.119Z,74.1
2023-12-16T01:07:07.761Z,73.96
2023-12-16T01:07:28.268Z,73.96
2023-12-16T01:07:48.744Z,74
2023-12-16T01:08:09.306Z,73.96
2023-12-16T01:08:29.944Z,73.94
2023-12-16T01:08:50.509Z,73.88
2023-12-16T01:09:11.105Z,73.82
2023-12-16T01:09:31.635Z,73.72
2023-12-16T01:09:52.224Z,73.66
2023-12-16T01:10:12.791Z,73.5
2023-12-16T01:10:33.370Z,73.65
2023-12-16T01:10:53.922Z,73.94
2023-12-16T01:11:14.478Z,74.06
2023-12-16T01:11:35.056Z,74.04
2023-12-16T01:11:55.624Z,74.1
2023-12-16T01:12:16.192Z,74.27
2023-12-16T01:12:36.784Z,74.35
2023-12-16T01:12:57.463Z,74.24
2023-12-16T01:13:17.956Z,74.28
2023-12-16T01:13:38.479Z,74.33
2023-12-16T01:13:59.059Z,74.26
2023-12-16T01:14:19.649Z,74.58
2023-12-16T01:14:40.227Z,74.62
2023-12-16T01:15:00.792Z,74.44
2023-12-16T01:15:21.336Z,74.29
2023-12-16T01:15:42.039Z,74.29
2023-12-16T01:16:02.542Z,74.43
2023-12-16T01:16:23.167Z,74.31
2023-12-16T01:16:43.667Z,74.31
2023-12-16T01:17:04.205Z,74.44
2023-12-16T01:17:24.779Z,74.51
2023-12-16T01:17:45.432Z,74.5
2023-12-16T01:18:06.031Z,74.7
2023-12-16T01:18:26.565Z,75.14
2023-12-16T01:18:47.357Z,75.29
2023-12-16T01:19:07.979Z,75.21
2023-12-16T01:19:28.415Z,75
2023-12-16T01:19:48.810Z,75.14
2023-12-16T01:20:09.382Z,74.96
2023-12-16T01:20:29.918Z,74.88
2023-12-16T01:20:50.511Z,74.71
2023-12-16T01:21:11.082Z,74.53
2023-12-16T01:21:31.647Z,74.35
2023-12-16T01:21:52.317Z,74.28
2023-12-16T01:22:12.804Z,74.11
2023-12-16T01:22:33.385Z,74.06
2023-12-16T01:22:53.948Z,73.97
2023-12-16T01:23:14.526Z,73.87
2023-12-16T01:23:35.096Z,73.74
2023-12-16T01:24:16.240Z,73.6
2023-12-16T01:24:36.799Z,73.72
2023-12-16T01:24:57.510Z,73.87
2023-12-16T01:25:17.989Z,73.84
2023-12-16T01:25:38.532Z,73.93
2023-12-16T01:25:59.118Z,74.38
2023-12-16T01:26:19.657Z,74.52
2023-12-16T01:26:40.155Z,74.33
2023-12-16T01:27:00.858Z,74.22
2023-12-16T01:27:21.386Z,74.19
2023-12-16T01:27:41.975Z,74.04
2023-12-16T01:28:02.572Z,73.89
2023-12-16T01:28:23.128Z,73.79
2023-12-16T01:28:43.666Z,73.75
2023-12-16T01:29:04.279Z,73.89
2023-12-16T01:29:24.820Z,74.02
2023-12-16T01:29:45.387Z,74.13
2023-12-16T01:30:06.014Z,74.18
2023-12-16T01:30:26.640Z,74.37
2023-12-16T01:30:47.129Z,74.29
2023-12-16T01:31:07.812Z,74.29
2023-12-16T01:31:28.262Z,74.42
2023-12-16T01:31:48.840Z,74.37
2023-12-16T01:32:29.996Z,74.46
2023-12-16T01:32:50.600Z,74.26
2023-12-16T01:33:11.262Z,74.34
2023-12-16T01:33:31.708Z,74.33
2023-12-16T01:33:52.330Z,74.31
2023-12-16T01:34:12.886Z,74.2
2023-12-16T01:34:33.451Z,74.31
2023-12-16T01:34:53.979Z,74.18
2023-12-16T01:35:14.565Z,74.15
2023-12-16T01:35:35.140Z,74.04
2023-12-16T01:35:55.693Z,73.95
2023-12-16T01:36:16.301Z,73.86
2023-12-16T01:36:36.760Z,74.14
2023-12-16T01:36:57.521Z,74.26
2023-12-16T01:37:18.139Z,74.21
2023-12-16T01:37:38.886Z,74.08
2023-12-16T01:37:59.141Z,73.88
2023-12-16T01:38:19.698Z,73.96
2023-12-16T01:38:40.276Z,73.8
2023-12-16T01:39:00.852Z,73.83
2023-12-16T01:39:21.439Z,73.85
2023-12-16T01:39:42.005Z,74.13
2023-12-16T01:40:02.660Z,73.99
2023-12-16T01:40:23.207Z,73.91
2023-12-16T01:40:43.922Z,73.87
2023-12-16T01:41:04.330Z,73.79
2023-12-16T01:41:24.889Z,73.78
2023-12-16T01:41:45.454Z,73.95
2023-12-16T01:42:26.561Z,73.87
2023-12-16T01:42:47.215Z,73.85
2023-12-16T01:43:07.819Z,73.77
2023-12-16T01:43:28.301Z,73.67
2023-12-16T01:43:48.864Z,73.55
2023-12-16T01:44:09.425Z,73.74
2023-12-16T01:44:30.037Z,73.79
2023-12-16T01:44:50.569Z,74.16
2023-12-16T01:45:11.145Z,74.07
2023-12-16T01:45:31.715Z,73.93
2023-12-16T01:45:52.358Z,73.86
2023-12-16T01:46:12.918Z,73.78
2023-12-16T01:46:33.530Z,73.75
2023-12-16T01:46:54.100Z,74.05
2023-12-16T01:47:14.579Z,74.1
2023-12-16T01:47:35.175Z,73.95
2023-12-16T01:47:55.795Z,73.8
2023-12-16T01:48:16.373Z,73.79
2023-12-16T01:48:37.000Z,73.67
2023-12-16T01:48:57.553Z,73.72
2023-12-16T01:49:18.094Z,73.74
2023-12-16T01:49:38.619Z,73.79
2023-12-16T01:49:59.221Z,73.8
2023-12-16T01:50:19.738Z,73.86
2023-12-16T01:50:40.316Z,73.82
2023-12-16T01:51:17.351Z,73.97
2023-12-16T01:51:37.965Z,74.01
2023-12-16T01:52:19.166Z,74.26
2023-12-16T01:52:39.641Z,74.27
2023-12-16T01:53:00.304Z,74.3
2023-12-16T01:53:20.780Z,74.12
2023-12-16T01:53:41.396Z,74
2023-12-16T01:54:02.174Z,73.98
2023-12-16T01:54:22.490Z,74.02
2023-12-16T01:54:43.118Z,73.93
2023-12-16T01:55:03.728Z,73.83
2023-12-16T01:55:24.356Z,73.75
2023-12-16T01:55:44.784Z,73.92
2023-12-16T01:56:05.357Z,74.1
2023-12-16T01:56:25.856Z,73.94
2023-12-16T01:56:46.517Z,73.81
2023-12-16T01:57:07.088Z,74.06
2023-12-16T01:57:27.673Z,74.27
2023-12-16T01:57:48.348Z,74.41
2023-12-16T01:58:08.864Z,74.38
2023-12-16T01:58:29.418Z,74.77
2023-12-16T01:58:49.992Z,74.53
2023-12-16T01:59:10.539Z,74.31
2023-12-16T01:59:31.102Z,74.18
2023-12-16T01:59:51.674Z,74.05
2023-12-16T02:00:12.265Z,73.93
2023-12-16T02:00:34.036Z,73.83
2023-12-16T02:00:53.355Z,73.74
2023-12-16T02:01:14.050Z,73.57
2023-12-16T02:01:34.653Z,73.54
2023-12-16T02:01:55.163Z,73.67
2023-12-16T02:02:15.671Z,73.72
2023-12-16T02:02:36.249Z,73.68
2023-12-16T02:02:56.824Z,73.63
2023-12-16T02:03:17.414Z,73.6
2023-12-16T02:03:37.989Z,73.66
2023-12-16T02:03:58.597Z,73.64
2023-12-16T02:04:19.240Z,73.58
2023-12-16T02:04:39.743Z,73.9
2023-12-16T02:05:00.373Z,74.07
2023-12-16T02:05:20.808Z,73.94
2023-12-16T02:05:41.381Z,74.34
2023-12-16T02:06:02.033Z,74.48
2023-12-16T02:06:22.536Z,74.75
2023-12-16T02:06:43.282Z,74.8
2023-12-16T02:07:03.847Z,74.82
2023-12-16T02:07:24.298Z,74.88
2023-12-16T02:07:44.852Z,74.54
2023-12-16T02:08:05.386Z,74.32
2023-12-16T02:08:25.974Z,74.15
2023-12-16T02:08:46.551Z,74.06
2023-12-16T02:09:07.095Z,73.9
2023-12-16T02:09:27.675Z,73.81
2023-12-16T02:09:48.277Z,73.73
2023-12-16T02:10:08.885Z,73.67
2023-12-16T02:10:29.557Z,73.55
2023-12-16T02:10:49.977Z,73.68
2023-12-16T02:11:10.569Z,73.95
2023-12-16T02:11:31.130Z,74.47
2023-12-16T02:11:51.618Z,74.55
2023-12-16T02:12:12.296Z,74.44
2023-12-16T02:12:32.832Z,74.32
2023-12-16T02:12:53.502Z,74.13
2023-12-16T02:13:14.041Z,73.99
2023-12-16T02:13:35.604Z,73.87
2023-12-16T02:13:55.162Z,73.8
2023-12-16T02:14:15.900Z,73.7
2023-12-16T02:14:36.305Z,73.65
2023-12-16T02:14:56.856Z,73.58
2023-12-16T02:15:17.409Z,73.48
2023-12-16T02:15:38.076Z,73.38
2023-12-16T02:15:58.588Z,73.3
2023-12-16T02:16:19.210Z,73.16
2023-12-16T02:16:39.705Z,73.12
2023-12-16T02:17:00.294Z,73.15
2023-12-16T02:17:20.855Z,73.27
2023-12-16T02:17:41.791Z,73.42
2023-12-16T02:18:02.092Z,73.46
2023-12-16T02:18:22.712Z,73.29
2023-12-16T02:18:43.203Z,73.29
2023-12-16T02:19:03.955Z,73.26
2023-12-16T02:19:24.346Z,73.3
2023-12-16T02:19:44.955Z,73.29
2023-12-16T02:20:05.543Z,73.14
2023-12-16T02:20:26.009Z,73.13
2023-12-16T02:20:46.586Z,73.21
2023-12-16T02:21:07.210Z,73.17
2023-12-16T02:21:27.748Z,73.09
2023-12-16T02:21:48.325Z,73.01
2023-12-16T02:22:08.920Z,72.91
2023-12-16T02:22:29.467Z,72.81
2023-12-16T02:22:49.961Z,72.71
2023-12-16T02:23:10.516Z,72.67
2023-12-16T02:23:31.195Z,72.61
2023-12-16T02:23:51.760Z,72.58
2023-12-16T02:24:12.346Z,72.63
2023-12-16T02:24:32.910Z,72.54
2023-12-16T02:24:53.474Z,72.52
2023-12-16T02:25:14.100Z,72.45
2023-12-16T02:25:34.643Z,72.41
2023-12-16T02:25:55.169Z,72.4
2023-12-16T02:26:15.747Z,72.46
2023-12-16T02:26:36.320Z,72.65
2023-12-16T02:26:56.871Z,73.12
2023-12-16T02:27:17.484Z,73.07
2023-12-16T02:27:38.425Z,72.97
2023-12-16T02:27:58.627Z,72.97
2023-12-16T02:28:19.231Z,72.86
2023-12-16T02:28:39.743Z,72.78
2023-12-16T02:29:00.325Z,72.74
2023-12-16T02:29:20.888Z,72.75
2023-12-16T02:29:41.459Z,72.77
2023-12-16T02:30:02.073Z,72.81
2023-12-16T02:30:22.691Z,72.78
2023-12-16T02:30:43.205Z,72.87
2023-12-16T02:31:03.964Z,72.87
2023-12-16T02:31:24.372Z,73.02
2023-12-16T02:31:44.937Z,73.09
2023-12-16T02:32:05.458Z,73.07
2023-12-16T02:32:26.105Z,72.99
2023-12-16T02:32:46.680Z,73.25
2023-12-16T02:33:07.322Z,73.3
2023-12-16T02:33:27.849Z,73.41
2023-12-16T02:33:48.479Z,73.33
2023-12-16T02:34:08.988Z,73.26
2023-12-16T02:34:29.513Z,73.13
2023-12-16T02:34:50.046Z,73.46
2023-12-16T02:35:10.665Z,73.69
2023-12-16T02:35:31.239Z,73.53
2023-12-16T02:35:51.773Z,73.65
2023-12-16T02:36:12.375Z,73.56
2023-12-16T02:36:32.908Z,73.4
2023-12-16T02:36:53.505Z,73.32
2023-12-16T02:37:14.147Z,73.46
2023-12-16T02:37:34.627Z,73.55
2023-12-16T02:37:55.204Z,73.54
2023-12-16T02:38:15.799Z,73.46
2023-12-16T02:38:36.338Z,73.32
2023-12-16T02:38:56.905Z,73.23
2023-12-16T02:39:17.490Z,73.15
2023-12-16T02:39:38.060Z,73.11
2023-12-16T02:39:58.718Z,73.05
2023-12-16T02:40:19.258Z,72.91
2023-12-16T02:40:39.762Z,72.81
2023-12-16T02:41:00.403Z,72.88
2023-12-16T02:41:20.927Z,72.94
2023-12-16T02:41:41.498Z,73.03
2023-12-16T02:42:02.081Z,73.04
2023-12-16T02:42:22.668Z,73.06
2023-12-16T02:42:43.127Z,73.11
2023-12-16T02:43:03.825Z,73.52
2023-12-16T02:43:24.408Z,73.73
2023-12-16T02:43:44.969Z,73.58
2023-12-16T02:44:05.517Z,73.48
2023-12-16T02:44:26.077Z,73.52
2023-12-16T02:44:46.651Z,73.49
2023-12-16T02:45:07.233Z,73.45
2023-12-16T02:45:27.783Z,73.58
2023-12-16T02:45:48.367Z,73.6
2023-12-16T02:46:09.024Z,73.47
2023-12-16T02:46:29.598Z,73.26
2023-12-16T02:46:50.071Z,73.18
2023-12-16T02:47:10.670Z,73.22
2023-12-16T02:47:31.295Z,73.44
2023-12-16T02:47:51.842Z,73.39
2023-12-16T02:48:12.435Z,73.41
2023-12-16T02:48:32.972Z,73.25
2023-12-16T02:48:53.620Z,73.3
2023-12-16T02:49:14.220Z,73.39
2023-12-16T02:49:34.767Z,73.46
2023-12-16T02:49:55.322Z,73.7
2023-12-16T02:50:15.806Z,73.81
2023-12-16T02:50:36.377Z,73.79
2023-12-16T02:50:56.962Z,73.67
2023-12-16T02:51:17.518Z,73.48
2023-12-16T02:51:38.099Z,73.37
2023-12-16T02:51:58.671Z,73.22
2023-12-16T02:52:19.313Z,73.12
2023-12-16T02:52:39.806Z,73.04
2023-12-16T02:53:00.467Z,73.02
2023-12-16T02:53:20.965Z,73.28
2023-12-16T02:53:41.526Z,73.37
2023-12-16T02:54:02.119Z,73.35
2023-12-16T02:54:22.681Z,73.31
2023-12-16T02:54:43.292Z,73.28
2023-12-16T02:55:03.878Z,73.2
2023-12-16T02:55:24.634Z,73.13
2023-12-16T02:55:44.968Z,73.06
2023-12-16T02:56:05.559Z,72.95
2023-12-16T02:56:26.114Z,72.93
2023-12-16T02:56:46.699Z,72.91
2023-12-16T02:57:07.254Z,72.87
2023-12-16T02:57:27.814Z,72.74
2023-12-16T02:57:48.446Z,72.61
2023-12-16T02:58:09.030Z,72.57
2023-12-16T02:58:29.558Z,72.54
2023-12-16T02:58:50.156Z,72.5
2023-12-16T02:59:10.753Z,72.44
2023-12-16T02:59:31.319Z,72.45
2023-12-16T03:00:08.313Z,72.37
2023-12-16T03:00:28.884Z,72.39
2023-12-16T03:00:49.561Z,72.62
2023-12-16T03:01:10.147Z,72.57
2023-12-16T03:01:30.740Z,72.5
2023-12-16T03:01:51.224Z,72.68
2023-12-16T03:02:11.746Z,73.03
2023-12-16T03:02:32.244Z,73.08
2023-12-16T03:02:52.920Z,73.06
2023-12-16T03:03:13.512Z,73.04
2023-12-16T03:03:34.082Z,72.93
2023-12-16T03:03:54.628Z,73.02
2023-12-16T03:04:15.223Z,72.98
2023-12-16T03:04:35.745Z,73.04
2023-12-16T03:04:56.376Z,72.88
2023-12-16T03:05:16.908Z,72.88
2023-12-16T03:05:37.516Z,72.73
2023-12-16T03:05:58.047Z,72.74
2023-12-16T03:06:18.653Z,72.83
2023-12-16T03:06:39.186Z,72.73
2023-12-16T03:06:59.833Z,72.74
2023-12-16T03:07:20.369Z,72.91
2023-12-16T03:07:41.073Z,73.25
2023-12-16T03:08:01.475Z,73.29
2023-12-16T03:08:22.051Z,73.25
2023-12-16T03:08:42.650Z,73.24
2023-12-16T03:09:03.243Z,73.1
2023-12-16T03:09:23.755Z,73.16
2023-12-16T03:09:44.391Z,73.52
2023-12-16T03:10:04.901Z,73.49
2023-12-16T03:10:25.605Z,73.28
2023-12-16T03:10:46.049Z,73.2
2023-12-16T03:11:06.623Z,73.26
2023-12-16T03:11:27.174Z,73.54
2023-12-16T03:11:47.804Z,73.68
2023-12-16T03:12:08.370Z,73.71
2023-12-16T03:12:28.933Z,73.65
2023-12-16T03:12:49.510Z,73.55
2023-12-16T03:13:10.093Z,73.4
2023-12-16T03:13:30.631Z,73.3
2023-12-16T03:13:51.215Z,73.42
2023-12-16T03:14:11.814Z,73.55
2023-12-16T03:14:32.474Z,73.45
2023-12-16T03:14:52.939Z,73.23
2023-12-16T03:15:13.496Z,73.15
2023-12-16T03:15:34.075Z,73.17
2023-12-16T03:15:54.652Z,73.19
2023-12-16T03:16:15.245Z,73.18
2023-12-16T03:16:35.818Z,73.54
2023-12-16T03:16:56.389Z,73.92
2023-12-16T03:17:17.023Z,73.78
2023-12-16T03:17:37.976Z,73.65
2023-12-16T03:17:58.114Z,73.66
2023-12-16T03:18:18.704Z,73.55
2023-12-16T03:18:39.254Z,73.42
2023-12-16T03:18:59.854Z,73.26
2023-12-16T03:19:20.449Z,73.28
2023-12-16T03:19:41.304Z,73.17
2023-12-16T03:20:01.614Z,73.32
2023-12-16T03:20:22.070Z,73.2
2023-12-16T03:20:42.660Z,73.07
2023-12-16T03:21:03.224Z,73.07
2023-12-16T03:21:23.786Z,73.12
2023-12-16T03:21:44.399Z,73.19
2023-12-16T03:22:05.020Z,73.18
2023-12-16T03:22:25.637Z,73.03
2023-12-16T03:22:46.108Z,72.97
2023-12-16T03:23:06.681Z,72.9
2023-12-16T03:23:27.257Z,72.86
2023-12-16T03:23:47.831Z,72.74
2023-12-16T03:24:08.400Z,72.74
2023-12-16T03:24:28.979Z,72.75
2023-12-16T03:24:49.539Z,72.71
2023-12-16T03:25:10.240Z,72.66
2023-12-16T03:25:30.713Z,72.66
2023-12-16T03:25:51.332Z,72.59
2023-12-16T03:26:11.861Z,72.62
2023-12-16T03:26:32.392Z,72.65
2023-12-16T03:26:52.970Z,72.77
2023-12-16T03:27:13.540Z,72.75
2023-12-16T03:27:34.102Z,72.91
2023-12-16T03:27:54.731Z,72.77
2023-12-16T03:28:15.314Z,72.73
2023-12-16T03:28:35.831Z,72.58
2023-12-16T03:28:56.437Z,72.44
2023-12-16T03:29:16.961Z,72.38
2023-12-16T03:29:37.582Z,72.39
2023-12-16T03:29:58.125Z,72.34
2023-12-16T03:30:18.731Z,72.29
2023-12-16T03:30:39.277Z,72.23
2023-12-16T03:30:59.894Z,72.22
2023-12-16T03:31:20.399Z,72.13
2023-12-16T03:31:41.002Z,72.1
2023-12-16T03:32:01.557Z,72.08
2023-12-16T03:32:22.147Z,72
2023-12-16T03:32:42.753Z,71.91
2023-12-16T03:33:03.448Z,71.94
2023-12-16T03:33:23.864Z,72.01
2023-12-16T03:33:44.577Z,71.98
2023-12-16T03:34:05.024Z,72.09
2023-12-16T03:34:25.596Z,72.5
2023-12-16T03:34:46.189Z,72.31
2023-12-16T03:35:06.698Z,72.18
2023-12-16T03:35:27.278Z,72.12
2023-12-16T03:35:47.841Z,71.96
2023-12-16T03:36:08.445Z,71.9
2023-12-16T03:36:28.999Z,71.89
2023-12-16T03:36:49.651Z,71.91
2023-12-16T03:37:10.232Z,72.23
2023-12-16T03:37:30.770Z,72.37
2023-12-16T03:37:51.263Z,72.3
2023-12-16T03:38:11.857Z,72.32
2023-12-16T03:38:32.450Z,72.28
2023-12-16T03:38:52.911Z,72.19
2023-12-16T03:39:13.571Z,72.35
2023-12-16T03:39:34.130Z,72.58
2023-12-16T03:39:54.746Z,72.66
2023-12-16T03:40:15.424Z,72.55
2023-12-16T03:40:35.987Z,72.39
2023-12-16T03:40:56.486Z,72.27
2023-12-16T03:41:17.021Z,72.21
2023-12-16T03:41:37.628Z,72.63
2023-12-16T03:41:58.152Z,72.6
2023-12-16T03:42:18.725Z,72.51
2023-12-16T03:42:39.335Z,72.4
2023-12-16T03:43:00.143Z,72.27
2023-12-16T03:43:20.471Z,72.2
2023-12-16T03:43:41.006Z,72.09
2023-12-16T03:44:01.596Z,71.96
2023-12-16T03:44:22.165Z,72.02
2023-12-16T03:44:42.751Z,71.96
2023-12-16T03:45:03.303Z,72.15
2023-12-16T03:45:23.899Z,72.32
2023-12-16T03:45:44.465Z,72.34
2023-12-16T03:46:05.090Z,72.19
2023-12-16T03:46:25.685Z,72.13
2023-12-16T03:46:46.185Z,72.12
2023-12-16T03:47:06.752Z,72.22
2023-12-16T03:47:27.304Z,72.2
2023-12-16T03:47:47.889Z,72.08
2023-12-16T03:48:08.576Z,72.02
2023-12-16T03:48:29.133Z,71.95
2023-12-16T03:48:49.687Z,71.93
2023-12-16T03:49:10.284Z,71.85
2023-12-16T03:49:30.793Z,71.79
2023-12-16T03:49:51.370Z,71.76
2023-12-16T03:50:11.929Z,71.67
2023-12-16T03:50:32.450Z,71.65
2023-12-16T03:50:53.031Z,71.63
2023-12-16T03:51:13.612Z,71.63
2023-12-16T03:51:34.185Z,71.66
2023-12-16T03:51:54.755Z,71.61
2023-12-16T03:52:15.396Z,71.58
2023-12-16T03:52:35.889Z,71.8
2023-12-16T03:52:56.486Z,71.83
2023-12-16T03:53:17.055Z,71.87
2023-12-16T03:53:37.631Z,71.86
2023-12-16T03:53:58.166Z,71.76
2023-12-16T03:54:18.668Z,71.68
2023-12-16T03:54:39.351Z,71.54
2023-12-16T03:54:59.969Z,71.42
2023-12-16T03:55:20.515Z,71.37
2023-12-16T03:55:41.055Z,71.41
2023-12-16T03:56:01.668Z,71.4
2023-12-16T03:56:22.207Z,71.38
2023-12-16T03:56:42.773Z,71.3
2023-12-16T03:57:03.378Z,71.22
2023-12-16T03:57:23.901Z,71.2
2023-12-16T03:57:44.504Z,71.16
2023-12-16T03:58:05.077Z,71.11
2023-12-16T03:58:25.721Z,71.07
2023-12-16T03:58:46.197Z,71.1
2023-12-16T03:59:06.806Z,71.16
2023-12-16T03:59:27.371Z,71.15
2023-12-16T03:59:47.988Z,71.08
2023-12-16T04:00:08.564Z,71.06
2023-12-16T04:00:29.086Z,71.26
2023-12-16T04:00:49.807Z,71.47
2023-12-16T04:01:10.270Z,71.41
2023-12-16T04:01:30.925Z,71.63
2023-12-16T04:01:51.426Z,71.72
2023-12-16T04:02:11.924Z,71.53
2023-12-16T04:02:32.550Z,71.51
2023-12-16T04:02:53.112Z,71.81
2023-12-16T04:03:13.705Z,71.77
2023-12-16T04:03:34.224Z,71.83
2023-12-16T04:03:54.803Z,71.93
2023-12-16T04:04:15.385Z,71.78
2023-12-16T04:04:35.940Z,71.77
2023-12-16T04:04:56.491Z,71.68
2023-12-16T04:05:17.081Z,71.57
2023-12-16T04:05:37.695Z,71.56
2023-12-16T04:05:58.258Z,71.59
2023-12-16T04:06:18.786Z,71.67
2023-12-16T04:06:39.362Z,71.7
2023-12-16T04:06:59.914Z,71.61
2023-12-16T04:07:20.528Z,71.85
2023-12-16T04:07:41.294Z,71.82
2023-12-16T04:08:01.668Z,71.67
2023-12-16T04:08:22.243Z,71.52
2023-12-16T04:08:59.271Z,71.47
2023-12-16T04:09:19.852Z,71.4
2023-12-16T04:09:40.402Z,71.35
2023-12-16T04:10:01.101Z,71.29
2023-12-16T04:10:21.644Z,71.27
2023-12-16T04:10:42.172Z,71.27
2023-12-16T04:11:02.743Z,71.24
2023-12-16T04:11:23.306Z,71.2
2023-12-16T04:11:43.982Z,71.28
2023-12-16T04:12:04.441Z,71.17
2023-12-16T04:12:24.991Z,71.1
2023-12-16T04:12:45.635Z,71.02
2023-12-16T04:13:06.194Z,71.05
2023-12-16T04:13:26.799Z,71.13
2023-12-16T04:13:47.291Z,71.17
2023-12-16T04:14:07.879Z,71.28
2023-12-16T04:14:28.423Z,71.21
2023-12-16T04:14:49.023Z,71.14
2023-12-16T04:15:09.615Z,71.05
2023-12-16T04:15:30.171Z,71.26
2023-12-16T04:15:50.776Z,71.22
2023-12-16T04:16:11.308Z,71.29
2023-12-16T04:16:31.913Z,71.23
2023-12-16T04:16:52.420Z,71.2
2023-12-16T04:17:13.006Z,71.22
2023-12-16T04:17:33.733Z,71.31
2023-12-16T04:17:54.336Z,71.27
2023-12-16T04:18:14.796Z,71.44
2023-12-16T04:18:35.404Z,71.55
2023-12-16T04:18:56.007Z,71.7
2023-12-16T04:19:16.645Z,71.6
2023-12-16T04:19:37.032Z,71.58
2023-12-16T04:19:57.618Z,71.42
2023-12-16T04:20:18.190Z,71.28
2023-12-16T04:20:38.759Z,71.3
2023-12-16T04:20:59.362Z,71.4
2023-12-16T04:21:19.880Z,71.33
2023-12-16T04:21:40.468Z,71.33
2023-12-16T04:22:01.109Z,71.33
2023-12-16T04:22:21.659Z,71.31
2023-12-16T04:22:42.173Z,71.35
2023-12-16T04:23:02.781Z,71.34
2023-12-16T04:23:23.311Z,71.62
2023-12-16T04:23:43.873Z,71.84
2023-12-16T04:24:04.387Z,72.1
2023-12-16T04:24:25.041Z,72.21
2023-12-16T04:24:45.702Z,72.2
2023-12-16T04:25:26.939Z,71.83
2023-12-16T04:25:47.334Z,71.66
2023-12-16T04:26:08.758Z,71.73
2023-12-16T04:26:28.489Z,71.76
2023-12-16T04:26:49.041Z,71.66
2023-12-16T04:27:09.597Z,71.71
2023-12-16T04:27:30.205Z,71.74
2023-12-16T04:27:50.829Z,71.74
2023-12-16T04:28:11.349Z,71.54
2023-12-16T04:28:31.904Z,71.42
2023-12-16T04:28:52.462Z,71.36
2023-12-16T04:29:13.077Z,71.38